Terminal Aerodrome Forecast
Issued by NWS Norman, OK

Home | Current Version | Previous Version | Text Only | Print | Product List | Glossary On
Versions: 1 2 3 4 5 6 7 8 9 10 11 12 13 14 15 16 17 18 19 20 21 22 23 24 25 26
000
FTUS44 KOUN 021121
TAFSPS
TAF
KSPS 021121Z 0212/0312 21014KT P6SM FEW040 BKN150
     FM021600 29014KT P6SM SCT040
     FM021900 31017G25KT P6SM SCT040
     FM030100 33012KT P6SM SKC=

USA.gov is the U.S. government's official web portal to all federal, state and local government web resources and services.